createdAt,value
2018-12-21T00:02:18.300Z,100737.83
2018-12-21T00:05:21.505Z,100736.22
2018-12-21T00:08:24.704Z,100722.94
2018-12-21T00:11:28.465Z,100720.21
2018-12-21T00:14:31.694Z,100720.83
2018-12-21T00:17:35.440Z,100723.92
2018-12-21T00:20:38.672Z,100708.02
2018-12-21T00:23:41.852Z,100711.14
2018-12-21T00:26:45.026Z,100706.34
2018-12-21T00:29:48.238Z,100701.97
2018-12-21T00:32:57.473Z,100695.80
2018-12-21T00:36:06.036Z,100695.84
2018-12-21T00:39:14.819Z,100696.25
2018-12-21T00:42:30.529Z,100690.94
2018-12-21T00:45:36.733Z,100692.36
2018-12-21T00:48:39.884Z,100690.65
2018-12-21T00:51:43.078Z,100684.80
2018-12-21T00:54:46.271Z,100687.94
2018-12-21T00:57:49.479Z,100689.13
2018-12-21T01:00:52.648Z,100688.47
2018-12-21T01:03:56.064Z,100686.71
2018-12-21T01:06:59.291Z,100691.75
2018-12-21T01:10:02.480Z,100688.80
2018-12-21T01:13:05.680Z,100683.56
2018-12-21T01:16:09.463Z,100683.50
2018-12-21T01:19:13.299Z,100681.20
2018-12-21T01:22:16.541Z,100679.61
2018-12-21T01:25:19.832Z,100683.50
2018-12-21T01:28:23.562Z,100675.28
2018-12-21T01:31:26.817Z,100676.50
2018-12-21T01:34:30.072Z,100669.59
2018-12-21T01:37:33.233Z,100668.25
2018-12-21T01:40:36.482Z,100672.10
2018-12-21T01:43:39.671Z,100677.47
2018-12-21T01:46:43.568Z,100671.33
2018-12-21T01:49:46.748Z,100661.27
2018-12-21T01:52:50.456Z,100658.63
2018-12-21T01:55:53.756Z,100652.47
2018-12-21T01:58:56.942Z,100648.94
2018-12-21T02:02:00.138Z,100649.33
2018-12-21T02:05:03.512Z,100646.69
2018-12-21T02:08:06.715Z,100645.86
2018-12-21T02:11:11.333Z,100639.14
2018-12-21T02:14:14.555Z,100638.13
2018-12-21T02:17:17.747Z,100634.56
2018-12-21T02:20:21.065Z,100637.23
2018-12-21T02:23:24.359Z,100632.84
2018-12-21T02:26:27.660Z,100623.59
2018-12-21T02:29:30.832Z,100628.02
2018-12-21T02:32:34.176Z,100618.72
2018-12-21T02:35:37.395Z,100620.64
2018-12-21T02:38:40.680Z,100618.03
2018-12-21T02:41:43.982Z,100610.62
2018-12-21T02:44:47.237Z,100605.36
2018-12-21T02:47:50.618Z,100595.73
2018-12-21T02:50:53.912Z,100597.80
2018-12-21T02:53:57.164Z,100596.03
2018-12-21T02:57:00.299Z,100591.30
2018-12-21T03:00:04.054Z,100592.91
2018-12-21T03:03:07.364Z,100594.20
2018-12-21T03:06:10.525Z,100588.39
2018-12-21T03:09:13.806Z,100587.92
2018-12-21T03:12:16.980Z,100584.84
2018-12-21T03:15:20.309Z,100584.14
2018-12-21T03:18:23.615Z,100580.98
2018-12-21T03:21:26.784Z,100582.31
2018-12-21T03:24:30.019Z,100588.52
2018-12-21T03:27:33.196Z,100583.73
2018-12-21T03:30:36.470Z,100577.34
2018-12-21T03:33:39.670Z,100573.39
2018-12-21T03:36:42.863Z,100568.95
2018-12-21T03:39:46.256Z,100568.16
2018-12-21T03:42:49.499Z,100564.11
2018-12-21T03:45:52.655Z,100560.64
2018-12-21T03:48:55.898Z,100556.24
2018-12-21T03:51:59.254Z,100553.63
2018-12-21T03:55:02.464Z,100540.73
2018-12-21T03:58:05.697Z,100543.06
2018-12-21T04:01:09.028Z,100536.45
2018-12-21T04:04:12.250Z,100536.52
2018-12-21T04:07:15.545Z,100536.39
2018-12-21T04:10:18.721Z,100525.04
2018-12-21T04:13:21.945Z,100513.09
2018-12-21T04:16:25.197Z,100517.20
2018-12-21T04:19:28.552Z,100518.72
2018-12-21T04:22:34.272Z,100520.23
2018-12-21T04:25:37.886Z,100513.73
2018-12-21T04:28:42.643Z,100510.09
2018-12-21T04:31:45.927Z,100511.73
2018-12-21T04:34:50.426Z,100499.94
2018-12-21T04:37:53.651Z,100498.18
2018-12-21T04:40:56.915Z,100495.84
2018-12-21T04:44:00.823Z,100491.02
2018-12-21T04:47:04.140Z,100493.31
2018-12-21T04:50:08.854Z,100486.19
2018-12-21T04:53:12.074Z,100480.44
2018-12-21T04:56:16.279Z,100486.53
2018-12-21T04:59:19.488Z,100486.73
2018-12-21T05:02:22.667Z,100481.46
2018-12-21T05:05:26.003Z,100483.16
2018-12-21T05:08:29.169Z,100482.78
2018-12-21T05:11:32.361Z,100470.19
2018-12-21T05:14:35.557Z,100471.13
2018-12-21T05:17:38.765Z,100461.19
2018-12-21T05:20:42.075Z,100459.88
2018-12-21T05:23:45.952Z,100454.81
2018-12-21T05:26:49.144Z,100452.83
2018-12-21T05:29:53.596Z,100446.20
2018-12-21T05:32:56.767Z,100442.38
2018-12-21T05:36:00.094Z,100437.48
2018-12-21T05:39:04.256Z,100434.46
2018-12-21T05:42:07.623Z,100431.32
2018-12-21T05:45:11.359Z,100429.18
2018-12-21T05:48:14.687Z,100422.96
2018-12-21T05:51:17.844Z,100420.37
2018-12-21T05:54:21.321Z,100422.87
2018-12-21T05:57:24.493Z,100414.06
2018-12-21T06:00:27.906Z,100407.56
2018-12-21T06:03:31.089Z,100402.28
2018-12-21T06:06:34.283Z,100390.05
2018-12-21T06:09:37.468Z,100382.95
2018-12-21T06:12:40.770Z,100378.86
2018-12-21T06:15:45.710Z,100375.13
2018-12-21T06:18:49.076Z,100380.50
2018-12-21T06:21:52.478Z,100374.69
2018-12-21T06:24:55.630Z,100370.31
2018-12-21T06:27:58.893Z,100368.30
2018-12-21T06:31:04.742Z,100359.05
2018-12-21T06:34:07.957Z,100350.32
2018-12-21T06:37:11.130Z,100347.41
2018-12-21T06:40:14.320Z,100346.02
2018-12-21T06:43:17.512Z,100339.83
2018-12-21T06:46:20.812Z,100348.25
2018-12-21T06:49:24.092Z,100350.08
2018-12-21T06:52:27.274Z,100346.02
2018-12-21T06:55:30.629Z,100345.41
2018-12-21T06:58:33.818Z,100332.82
2018-12-21T07:01:37.279Z,100330.14
2018-12-21T07:04:40.595Z,100332.17
2018-12-21T07:07:43.794Z,100331.80
2018-12-21T07:10:47.219Z,100330.91
2018-12-21T07:13:51.712Z,100324.59
2018-12-21T07:16:55.013Z,100317.77
2018-12-21T07:19:58.207Z,100312.73
2018-12-21T07:23:01.406Z,100315.27
2018-12-21T07:26:04.695Z,100303.50
2018-12-21T07:29:07.912Z,100304.30
2018-12-21T07:32:11.097Z,100302.91
2018-12-21T07:35:16.302Z,100302.52
2018-12-21T07:38:19.611Z,100301.19
2018-12-21T07:41:22.993Z,100294.18
2018-12-21T07:44:26.191Z,100285.95
2018-12-21T07:47:29.539Z,100289.70
2018-12-21T07:50:32.800Z,100281.27
2018-12-21T07:53:36.287Z,100273.34
2018-12-21T07:56:39.712Z,100270.74
2018-12-21T07:59:43.026Z,100262.34
2018-12-21T08:02:46.307Z,100261.34
2018-12-21T08:05:49.509Z,100262.30
2018-12-21T08:08:52.799Z,100251.26
2018-12-21T08:11:56.056Z,100239.48
2018-12-21T08:14:59.256Z,100243.34
2018-12-21T08:18:02.442Z,100233.32
2018-12-21T08:21:05.777Z,100238.33
2018-12-21T08:24:09.137Z,100226.56
2018-12-21T08:27:12.403Z,100229.92
2018-12-21T08:30:15.698Z,100230.84
2018-12-21T08:33:18.961Z,100223.59
2018-12-21T08:36:22.479Z,100213.87
2018-12-21T08:39:25.814Z,100213.23
2018-12-21T08:42:29.232Z,100211.88
2018-12-21T08:45:32.473Z,100202.18
2018-12-21T08:48:35.641Z,100207.55
2018-12-21T08:51:38.850Z,100194.26
2018-12-21T08:54:42.146Z,100188.63
2018-12-21T08:57:45.349Z,100178.89
2018-12-21T09:00:48.534Z,100181.53
2018-12-21T09:03:51.781Z,100179.24
2018-12-21T09:06:55.183Z,100178.33
2018-12-21T09:09:58.396Z,100180.22
2018-12-21T09:13:01.631Z,100171.67
2018-12-21T09:16:04.923Z,100173.44
2018-12-21T09:19:08.128Z,100164.45
2018-12-21T09:22:11.311Z,100159.12
2018-12-21T09:25:14.705Z,100154.37
2018-12-21T09:28:18.214Z,100160.48
2018-12-21T09:31:21.557Z,100151.33
2018-12-21T09:34:24.725Z,100138.38
2018-12-21T09:37:28.006Z,100132.74
2018-12-21T09:40:31.350Z,100127.81
2018-12-21T09:43:34.991Z,100131.77
2018-12-21T09:46:38.209Z,100129.93
2018-12-21T09:49:41.382Z,100129.70
2018-12-21T09:52:44.599Z,100123.23
2018-12-21T09:55:47.779Z,100117.11
2018-12-21T09:58:50.938Z,100117.11
2018-12-21T10:01:54.192Z,100105.76
2018-12-21T10:04:57.363Z,100100.61
2018-12-21T10:08:00.564Z,100100.61
2018-12-21T10:11:04.477Z,100093.15
2018-12-21T10:14:07.694Z,100082.91
2018-12-21T10:17:10.862Z,100070.92
2018-12-21T10:20:14.093Z,100059.66
2018-12-21T10:23:17.560Z,100050.91
2018-12-21T10:26:22.568Z,100039.46
2018-12-21T10:29:25.884Z,100037.70
2018-12-21T10:32:29.098Z,100030.95
2018-12-21T10:35:32.276Z,100018.08
2018-12-21T10:38:36.796Z,100012.66
2018-12-21T10:41:40.008Z,100005.31
2018-12-21T10:44:43.187Z,100009.03
2018-12-21T10:47:46.351Z,99999.05
2018-12-21T10:50:50.992Z,99992.09
2018-12-21T10:53:54.197Z,99988.83
2018-12-21T10:56:57.394Z,99984.23
2018-12-21T11:00:00.721Z,99969.30
2018-12-21T11:03:04.020Z,99959.04
2018-12-21T11:06:07.313Z,99952.82
2018-12-21T11:09:10.503Z,99940.44
2018-12-21T11:12:13.779Z,99938.63
2018-12-21T11:15:16.971Z,99930.59
2018-12-21T11:18:20.183Z,99925.97
2018-12-21T11:21:23.474Z,99919.87
2018-12-21T11:24:35.234Z,99917.98
2018-12-21T11:27:32.112Z,99903.45
2018-12-21T11:30:35.327Z,99894.33
2018-12-21T11:33:38.522Z,99896.24
2018-12-21T11:36:41.825Z,99882.44
2018-12-21T11:39:44.998Z,99882.59
2018-12-21T11:42:48.277Z,99863.66
2018-12-21T11:45:51.591Z,99865.86
2018-12-21T11:48:54.914Z,99855.45
2018-12-21T11:51:58.357Z,99847.03
2018-12-21T11:55:01.602Z,99836.95
2018-12-21T11:58:05.730Z,99829.63
2018-12-21T12:01:09.094Z,99820.66
2018-12-21T12:04:12.433Z,99816.64
2018-12-21T12:07:15.636Z,99812.14
2018-12-21T12:10:18.878Z,99805.25
2018-12-21T12:13:22.189Z,99796.68
2018-12-21T12:16:25.382Z,99790.95
2018-12-21T12:19:28.598Z,99785.41
2018-12-21T12:22:31.793Z,99774.70
2018-12-21T12:25:35.005Z,99769.53
2018-12-21T12:28:38.267Z,99766.63
2018-12-21T12:31:42.911Z,99756.77
2018-12-21T12:34:46.441Z,99754.03
2018-12-21T12:37:49.642Z,99748.30
2018-12-21T12:40:53.119Z,99734.77
2018-12-21T12:43:58.558Z,99729.58
2018-12-21T12:47:01.740Z,99725.19
2018-12-21T12:50:06.878Z,99717.44
2018-12-21T12:53:10.077Z,99719.71
2018-12-21T12:56:13.297Z,99702.28
2018-12-21T12:59:16.535Z,99699.57
2018-12-21T13:02:19.859Z,99691.45
2018-12-21T13:05:23.132Z,99683.97
2018-12-21T13:08:26.566Z,99676.48
2018-12-21T13:11:29.845Z,99670.27
2018-12-21T13:14:33.227Z,99663.10
2018-12-21T13:17:37.720Z,99646.17
2018-12-21T13:20:40.933Z,99636.05
2018-12-21T13:23:44.100Z,99626.73
2018-12-21T13:26:48.446Z,99626.17
2018-12-21T13:29:51.735Z,99633.27
2018-12-21T13:32:55.634Z,99614.23
2018-12-21T13:35:58.809Z,99613.40
2018-12-21T13:39:02.121Z,99609.38
2018-12-21T13:42:05.384Z,99602.71
2018-12-21T13:45:10.487Z,99604.41
2018-12-21T13:48:13.713Z,99595.40
2018-12-21T13:51:16.934Z,99582.71
2018-12-21T13:54:20.362Z,99579.81
2018-12-21T13:57:23.685Z,99577.54
2018-12-21T14:00:27.012Z,99583.14
2018-12-21T14:03:30.304Z,99576.41
2018-12-21T14:06:33.607Z,99585.54
2018-12-21T14:09:36.850Z,99579.55
2018-12-21T14:12:40.223Z,99565.36
2018-12-21T14:15:43.651Z,99553.27
2018-12-21T14:18:47.036Z,99548.38
2018-12-21T14:21:50.352Z,99545.05
2018-12-21T14:24:53.537Z,99539.23
2018-12-21T14:27:56.760Z,99530.37
2018-12-21T14:31:00.097Z,99531.52
2018-12-21T14:34:04.578Z,99530.70
2018-12-21T14:37:07.955Z,99526.85
2018-12-21T14:40:11.147Z,99521.76
2018-12-21T14:43:14.813Z,99512.33
2018-12-21T14:46:18.108Z,99507.38
2018-12-21T14:49:21.303Z,99503.09
2018-12-21T14:52:24.605Z,99493.09
2018-12-21T14:55:28.149Z,99487.03
2018-12-21T14:58:31.341Z,99468.52
2018-12-21T15:01:34.874Z,99478.27
2018-12-21T15:04:39.773Z,99467.19
2018-12-21T15:07:43.069Z,99471.34
2018-12-21T15:10:46.411Z,99467.83
2018-12-21T15:13:49.711Z,99467.77
2018-12-21T15:16:52.941Z,99461.85
2018-12-21T15:19:56.138Z,99454.23
2018-12-21T15:22:59.416Z,99447.98
2018-12-21T15:26:02.709Z,99438.03
2018-12-21T15:29:06.059Z,99440.47
2018-12-21T15:32:09.436Z,99441.50
2018-12-21T15:35:12.781Z,99446.18
2018-12-21T15:38:17.522Z,99438.06
2018-12-21T15:41:20.760Z,99439.80
2018-12-21T15:44:25.357Z,99428.70
2018-12-21T15:47:28.522Z,99423.31
2018-12-21T15:50:31.707Z,99417.69
2018-12-21T15:53:34.922Z,99412.15
2018-12-21T15:56:38.124Z,99403.95
2018-12-21T15:59:41.582Z,99398.22
2018-12-21T16:02:48.166Z,99397.07
2018-12-21T16:05:51.517Z,99388.20
2018-12-21T16:08:54.866Z,99375.87
2018-12-21T16:11:59.950Z,99375.55
2018-12-21T16:15:03.159Z,99383.17
2018-12-21T16:18:06.495Z,99378.37
2018-12-21T16:21:11.468Z,99373.93
2018-12-21T16:24:14.704Z,99359.93
2018-12-21T16:27:18.172Z,99361.19
2018-12-21T16:30:21.396Z,99357.24
2018-12-21T16:33:24.669Z,99357.16
2018-12-21T16:36:27.963Z,99352.61
2018-12-21T16:39:32.182Z,99341.04
2018-12-21T16:42:35.506Z,99342.16
2018-12-21T16:45:38.793Z,99327.00
2018-12-21T16:48:42.027Z,99315.81
2018-12-21T16:51:45.273Z,99312.02
2018-12-21T16:54:48.468Z,99303.87
2018-12-21T16:57:51.668Z,99304.89
2018-12-21T17:00:54.990Z,99295.73
2018-12-21T17:03:58.268Z,99287.81
2018-12-21T17:07:01.595Z,99291.89
2018-12-21T17:10:08.589Z,99287.36
2018-12-21T17:13:11.824Z,99282.50
2018-12-21T17:16:15.041Z,99275.24
2018-12-21T17:19:20.450Z,99269.45
2018-12-21T17:22:23.767Z,99263.53
2018-12-21T17:25:27.479Z,99264.69
2018-12-21T17:28:30.667Z,99254.71
2018-12-21T17:31:33.865Z,99252.67
2018-12-21T17:34:37.159Z,99249.73
2018-12-21T17:37:40.639Z,99236.99
2018-12-21T17:40:43.846Z,99234.34
2018-12-21T17:43:47.248Z,99225.27
2018-12-21T17:46:51.736Z,99234.62
2018-12-21T17:49:54.954Z,99226.11
2018-12-21T17:52:58.152Z,99223.86
2018-12-21T17:56:01.441Z,99212.84
2018-12-21T17:59:04.777Z,99213.80
2018-12-21T18:02:07.982Z,99222.17
2018-12-21T18:05:11.348Z,99210.95
2018-12-21T18:08:14.626Z,99199.88
2018-12-21T18:11:19.071Z,99204.72
2018-12-21T18:14:22.458Z,99202.23
2018-12-21T18:17:25.821Z,99200.82
2018-12-21T18:20:29.010Z,99198.18
2018-12-21T18:23:33.288Z,99199.80
2018-12-21T18:26:38.694Z,99203.88
2018-12-21T18:29:43.409Z,99205.89
2018-12-21T18:32:46.800Z,99202.80
2018-12-21T18:35:50.169Z,99200.01
2018-12-21T18:38:53.436Z,99197.88
2018-12-21T18:41:57.940Z,99193.05
2018-12-21T18:45:01.197Z,99185.06
2018-12-21T18:48:04.614Z,99178.53
2018-12-21T18:51:07.914Z,99173.86
2018-12-21T18:54:11.193Z,99166.09
2018-12-21T18:57:17.789Z,99172.97
2018-12-21T19:00:21.036Z,99177.22
2018-12-21T19:03:24.343Z,99174.94
2018-12-21T19:06:27.511Z,99175.18
2018-12-21T19:09:30.731Z,99171.26
2018-12-21T19:12:34.030Z,99169.45
2018-12-21T19:15:38.075Z,99165.80
2018-12-21T19:18:41.349Z,99172.00
2018-12-21T19:21:44.548Z,99176.17
2018-12-21T19:24:47.848Z,99182.86
2018-12-21T19:27:51.209Z,99176.11
2018-12-21T19:30:54.483Z,99176.92
2018-12-21T19:33:57.919Z,99178.96
2018-12-21T19:37:01.847Z,99190.56
2018-12-21T19:40:09.417Z,99197.28
2018-12-21T19:43:12.644Z,99193.71
2018-12-21T19:46:15.959Z,99197.08
2018-12-21T19:49:20.285Z,99201.92
2018-12-21T19:52:23.513Z,99197.80
2018-12-21T19:55:47.086Z,99196.56
2018-12-21T19:58:50.378Z,99186.07
2018-12-21T20:01:53.678Z,99190.63
2018-12-21T20:04:56.956Z,99187.03
2018-12-21T20:08:00.276Z,99195.75
2018-12-21T20:11:03.671Z,99201.39
2018-12-21T20:14:06.898Z,99206.67
2018-12-21T20:17:10.172Z,99208.02
2018-12-21T20:20:13.514Z,99212.63
2018-12-21T20:23:16.780Z,99220.02
2018-12-21T20:26:20.271Z,99209.40
2018-12-21T20:29:23.556Z,99228.63
2018-12-21T20:32:26.890Z,99234.41
2018-12-21T20:35:30.178Z,99242.33
2018-12-21T20:38:33.410Z,99242.12
2018-12-21T20:41:37.351Z,99240.52
2018-12-21T20:44:40.736Z,99254.27
2018-12-21T20:47:44.335Z,99248.84
2018-12-21T20:50:47.736Z,99258.08
2018-12-21T20:53:52.127Z,99262.60
2018-12-21T20:56:59.062Z,99264.58
2018-12-21T21:00:02.794Z,99270.97
2018-12-21T21:03:06.219Z,99274.77
2018-12-21T21:06:09.739Z,99277.33
2018-12-21T21:09:14.036Z,99289.48
2018-12-21T21:12:17.468Z,99295.84
2018-12-21T21:15:20.850Z,99305.20
2018-12-21T21:18:24.257Z,99312.44
2018-12-21T21:21:27.588Z,99323.63
2018-12-21T21:24:30.988Z,99328.27
2018-12-21T21:27:35.283Z,99333.05
2018-12-21T21:30:39.750Z,99341.52
2018-12-21T21:33:43.178Z,99360.56
2018-12-21T21:36:46.782Z,99366.82
2018-12-21T21:39:50.447Z,99374.57
2018-12-21T21:42:57.686Z,99379.64
2018-12-21T21:46:00.561Z,99391.77
2018-12-21T21:49:04.057Z,99401.11
2018-12-21T21:52:07.581Z,99410.61
2018-12-21T21:55:11.028Z,99425.17
2018-12-21T21:58:14.964Z,99428.63
2018-12-21T22:01:18.374Z,99437.36
2018-12-21T22:04:22.020Z,99446.91
2018-12-21T22:07:25.974Z,99456.02
2018-12-21T22:10:29.479Z,99463.83
2018-12-21T22:13:32.785Z,99468.56
2018-12-21T22:16:36.616Z,99478.19
2018-12-21T22:19:40.100Z,99483.89
2018-12-21T22:22:43.426Z,99494.78
2018-12-21T22:25:53.249Z,99507.82
2018-12-21T22:28:52.338Z,99511.73
2018-12-21T22:31:55.654Z,99517.93
2018-12-21T22:34:58.991Z,99535.69
2018-12-21T22:38:02.283Z,99538.31
2018-12-21T22:41:05.628Z,99543.65
2018-12-21T22:44:08.976Z,99546.52
2018-12-21T22:47:12.200Z,99559.80
2018-12-21T22:50:15.520Z,99574.14
2018-12-21T22:53:19.703Z,99578.92
2018-12-21T22:56:22.933Z,99593.58
2018-12-21T22:59:26.342Z,99600.58
2018-12-21T23:02:30.315Z,99608.87
2018-12-21T23:05:33.686Z,99615.67
2018-12-21T23:08:37.168Z,99630.01
2018-12-21T23:11:40.822Z,99633.73
2018-12-21T23:14:44.162Z,99644.45
2018-12-21T23:17:47.567Z,99659.22
2018-12-21T23:20:50.887Z,99666.91
2018-12-21T23:23:54.286Z,99676.82
2018-12-21T23:26:57.738Z,99686.08
2018-12-21T23:30:01.219Z,99693.41
2018-12-21T23:33:06.006Z,99698.09
2018-12-21T23:36:10.006Z,99702.50
2018-12-21T23:39:13.324Z,99712.89
2018-12-21T23:42:16.678Z,99722.12
2018-12-21T23:45:20.005Z,99725.77
2018-12-21T23:48:23.367Z,99729.63
2018-12-21T23:51:26.792Z,99736.66
2018-12-21T23:54:30.081Z,99746.19
2018-12-21T23:57:33.275Z,99750.67
